Main page
METAR-TAF:

METAR-TAF

Airports :

Chester Airport

Chester, Connecticut, United States

latitude: 41-23-02N, longitude: 072-30-21W, elevation: 417 ft

Current weather observation

The report was made 16 minutes ago, at 09:55 UTC
Wind 8 mph from the North/Northwest with gusts up to 16 mph
Temperature 54°F
Humidity 50%
Pressure 30.11 in. Hg
Visibility: 10 miles
Clear sky

METAR: KSNC 220955Z AUTO 33007G14KT 10SM CLR 12/02 A3011 RMK AO2

Time: 06:11 (10:11 UTC)


TAF: missing

Weather observations and forecasts of more than 4000 airports (METAR and TAF reports).

The available stations are represented by yellow and red dots on the map.

Hover mouse over dot to see the name of the station.

Then click to see weather observations and forecasts.

To change the map : click on the green buttons with a black cross to zoom in, on the green button with a dash to zoom out, or on the green arrows for adjacent maps.


METAR-TAF: